Time;durP1;ratioP1;P1;durP2;ratioP2;P2;SDS_P1;SDS_P2;PMS_P1;PMS_P2;Temp;Humidity;BMP_temperature;BMP_pressure;BME280_temperature;BME280_humidity;BME280_pressure;Samples;Min_cycle;Max_cycle;Signal;HPM_P1;HPM_P2
2023/03/20 00:01:59;;;;;;;;;;;;;;;19.97;47.58;101080.66;4955001;28;4174;-61
2023/03/20 00:04:25;;;;;;;;;;;;;;;19.97;47.71;101066.28;4953163;28;5283;-61
2023/03/20 00:06:52;;;;;;;;;;;;;;;19.96;47.57;101073.44;4953275;28;4163;-61
2023/03/20 00:09:18;;;;;;;;;;;;;;;19.97;47.69;101072.03;4956446;28;5344;-61
2023/03/20 00:11:48;;;;;;;;;;;;;;;19.95;47.67;101063.34;4952385;28;5053;-61
2023/03/20 00:14:15;;;;;;;;;;;;;;;19.95;47.63;101074.84;4946948;28;4095;-61
2023/03/20 00:16:42;;;;;;;;;;;;;;;19.94;47.64;101073.34;4922469;29;4176;-61
2023/03/20 00:19:18;;;;;;;;;;;;;;;19.93;47.72;101068.97;4946315;28;4122;-61
2023/03/20 00:21:45;;;;;;;;;;;;;;;19.93;47.77;101066.09;4946073;28;4173;-61
2023/03/20 00:24:11;;;;;;;;;;;;;;;19.94;47.74;101067.59;4944131;29;4156;-61
2023/03/20 00:26:38;;;;;;;;;;;;;;;19.93;47.77;101060.34;4945059;28;4252;-61
2023/03/20 00:29:05;;;;;;;;;;;;;;;19.91;47.77;101066.00;4940662;28;4187;-61
2023/03/20 00:31:38;;;;;;;;;;;;;;;19.92;47.74;101063.88;4946017;28;4188;-61
2023/03/20 00:34:05;;;;;;;;;;;;;;;19.90;47.74;101073.13;4942375;28;4158;-61
2023/03/20 00:36:31;;;;;;;;;;;;;;;19.90;47.64;101067.38;4938653;28;4050;-61
2023/03/20 00:38:58;;;;;;;;;;;;;;;19.91;47.74;101068.88;4944726;28;4119;-61
2023/03/20 00:41:35;;;;;;;;;;;;;;;19.91;47.72;101062.38;4944465;28;4223;-61
2023/03/20 00:44:03;;;;;;;;;;;;;;;19.88;47.73;101058.63;4929213;28;5096;-61
2023/03/20 00:46:30;;;;;;;;;;;;;;;19.89;47.68;101060.16;4945114;28;4073;-61
2023/03/20 00:48:57;;;;;;;;;;;;;;;19.89;47.72;101060.16;4935762;28;4236;-61
2023/03/20 00:51:23;;;;;;;;;;;;;;;19.89;47.59;101063.03;4947422;28;4529;-61
2023/03/20 00:53:50;;;;;;;;;;;;;;;19.88;47.67;101058.63;4940450;28;4233;-61
2023/03/20 00:56:27;;;;;;;;;;;;;;;19.86;47.73;101055.69;4946099;28;4232;-61
2023/03/20 00:58:53;;;;;;;;;;;;;;;19.86;47.77;101061.44;4946382;28;3970;-61
2023/03/20 01:01:20;;;;;;;;;;;;;;;19.86;47.62;101055.69;4945341;28;4204;-61
2023/03/20 01:03:46;;;;;;;;;;;;;;;19.85;47.70;101049.16;4923524;28;4163;-61
2023/03/20 01:06:13;;;;;;;;;;;;;;;19.84;47.70;101047.69;4946990;28;4175;-61
2023/03/20 01:08:40;;;;;;;;;;;;;;;19.85;47.70;101040.56;4942257;28;4348;-61
2023/03/20 01:11:08;;;;;;;;;;;;;;;19.83;47.70;101036.81;4939498;28;4312;-61
2023/03/20 01:13:34;;;;;;;;;;;;;;;19.83;47.65;101045.44;4923227;29;5268;-61
2023/03/20 01:16:01;;;;;;;;;;;;;;;19.84;47.70;101055.56;4932103;29;4282;-61
2023/03/20 01:18:27;;;;;;;;;;;;;;;19.84;47.62;101062.06;4939227;29;4026;-61
2023/03/20 01:20:54;;;;;;;;;;;;;;;19.84;47.63;101061.31;4944493;28;4127;-61
2023/03/20 01:23:21;;;;;;;;;;;;;;;19.84;47.60;101055.56;4943857;29;4464;-61
2023/03/20 01:25:48;;;;;;;;;;;;;;;19.84;47.61;101059.19;4945795;29;5182;-61
2023/03/20 01:28:16;;;;;;;;;;;;;;;19.83;47.51;101062.69;4936698;28;5246;-61
2023/03/20 01:30:42;;;;;;;;;;;;;;;19.84;47.62;101067.06;4942986;28;4332;-62
2023/03/20 01:33:13;;;;;;;;;;;;;;;19.82;47.55;101064.81;4937181;28;4941;-61
2023/03/20 01:35:39;;;;;;;;;;;;;;;19.83;47.62;101062.69;4942610;28;4156;-61
2023/03/20 01:38:13;;;;;;;;;;;;;;;19.83;47.56;101074.19;4919565;28;5383;-61
2023/03/20 01:40:42;;;;;;;;;;;;;;;19.82;47.57;101069.84;4904274;29;4206;-61
2023/03/20 01:43:13;;;;;;;;;;;;;;;19.82;47.61;101072.72;4930157;28;6009;-61
2023/03/20 01:45:51;;;;;;;;;;;;;;;19.82;47.58;101081.34;4938115;29;4155;-61
2023/03/20 01:48:18;;;;;;;;;;;;;;;19.81;47.56;101074.09;4915801;28;4168;-61
2023/03/20 01:50:44;;;;;;;;;;;;;;;19.82;47.66;101072.72;4922186;29;4263;-61
2023/03/20 01:53:21;;;;;;;;;;;;;;;19.79;47.67;101074.75;4905346;29;4234;-61
2023/03/20 01:55:53;;;;;;;;;;;;;;;19.79;47.54;101066.13;4904831;29;4199;-61
2023/03/20 01:58:22;;;;;;;;;;;;;;;19.80;47.66;101069.72;4934261;28;4341;-61
2023/03/20 02:00:49;;;;;;;;;;;;;;;19.79;47.48;101073.97;4919279;29;4242;-62
2023/03/20 02:03:17;;;;;;;;;;;;;;;19.78;47.55;101072.50;4918337;28;4146;-61
2023/03/20 02:06:02;;;;;;;;;;;;;;;19.77;47.58;101071.75;4943514;28;6428;-61
2023/03/20 02:08:49;;;;;;;;;;;;;;;19.77;47.53;101071.75;4938591;28;4137;-61
2023/03/20 02:11:16;;;;;;;;;;;;;;;19.78;47.50;101069.63;4924224;29;5506;-60
2023/03/20 02:13:43;;;;;;;;;;;;;;;19.78;47.55;101072.50;4903117;29;4523;-61
2023/03/20 02:16:10;;;;;;;;;;;;;;;19.78;47.54;101075.38;4917003;29;4279;-60
2023/03/20 02:19:23;;;;;;;;;;;;;;;19.77;47.52;101071.00;4934420;28;4171;-60
2023/03/20 02:22:09;;;;;;;;;;;;;;;19.76;47.54;101069.50;4901350;29;4266;-60
2023/03/20 02:24:43;;;;;;;;;;;;;;;19.76;47.53;101081.00;4924007;29;4876;-60
2023/03/20 02:27:24;;;;;;;;;;;;;;;19.76;47.50;101069.50;4927010;29;4277;-60
2023/03/20 02:30:10;;;;;;;;;;;;;;;19.76;47.54;101083.88;4901765;29;4021;-60
2023/03/20 02:32:49;;;;;;;;;;;;;;;19.76;47.52;101069.50;4931303;28;4402;-60
2023/03/20 02:35:36;;;;;;;;;;;;;;;19.75;47.43;101082.41;4921007;29;4130;-60
2023/03/20 02:38:06;;;;;;;;;;;;;;;19.74;47.62;101078.03;4918480;28;4143;-60
2023/03/20 02:40:37;;;;;;;;;;;;;;;19.73;47.56;101073.66;4936602;28;4181;-60
2023/03/20 02:43:10;;;;;;;;;;;;;;;19.74;47.62;101084.50;4912807;28;5426;-60
2023/03/20 02:45:47;;;;;;;;;;;;;;;19.73;47.61;101079.41;4903976;29;5316;-60
2023/03/20 02:48:20;;;;;;;;;;;;;;;19.74;47.56;101075.16;4903754;28;4215;-60
2023/03/20 02:50:49;;;;;;;;;;;;;;;19.73;47.59;101076.53;4917944;29;4213;-60
2023/03/20 02:53:36;;;;;;;;;;;;;;;19.72;47.60;101075.78;4927079;29;4170;-60
2023/03/20 02:56:13;;;;;;;;;;;;;;;19.72;47.66;101081.53;4931034;28;5084;-60
2023/03/20 02:58:54;;;;;;;;;;;;;;;19.72;47.54;101075.03;4925729;28;4201;-60
2023/03/20 03:01:22;;;;;;;;;;;;;;;19.72;47.49;101086.53;4907405;29;6032;-60
2023/03/20 03:03:53;;;;;;;;;;;;;;;19.72;47.57;101081.53;4926889;28;4213;-60
2023/03/20 03:06:21;;;;;;;;;;;;;;;19.72;47.58;101086.53;4915329;29;5530;-60
2023/03/20 03:08:49;;;;;;;;;;;;;;;19.72;47.58;101080.78;4931580;28;5293;-61
2023/03/20 03:11:16;;;;;;;;;;;;;;;19.70;47.43;101075.69;4914330;29;4348;-60
2023/03/20 03:13:47;;;;;;;;;;;;;;;19.69;47.49;101071.31;4930057;28;4178;-61
2023/03/20 03:16:27;;;;;;;;;;;;;;;19.70;47.52;101072.06;4921787;29;4148;-60
2023/03/20 03:19:05;;;;;;;;;;;;;;;19.70;47.57;101080.69;4918407;28;5268;-60
2023/03/20 03:21:31;;;;;;;;;;;;;;;19.70;47.51;101089.28;4912744;28;5428;-60
2023/03/20 03:23:58;;;;;;;;;;;;;;;19.69;47.52;101085.69;4939755;28;4332;-60
2023/03/20 03:26:26;;;;;;;;;;;;;;;19.70;47.55;101097.91;4940123;28;4083;-60
2023/03/20 03:29:02;;;;;;;;;;;;;;;19.67;47.48;101092.03;4921895;29;4135;-60
2023/03/20 03:31:29;;;;;;;;;;;;;;;19.69;47.53;101093.56;4925115;29;4199;-60
2023/03/20 03:33:56;;;;;;;;;;;;;;;19.67;47.44;101083.41;4932778;28;4251;-60
2023/03/20 03:36:31;;;;;;;;;;;;;;;19.68;47.53;101081.31;4942269;28;4216;-60
2023/03/20 03:39:17;;;;;;;;;;;;;;;19.64;47.66;101084.69;4943858;28;4206;-60
2023/03/20 03:41:47;;;;;;;;;;;;;;;19.67;47.54;101086.28;4944588;28;5466;-61
2023/03/20 03:44:22;;;;;;;;;;;;;;;19.69;47.56;101088.56;4920040;29;4921;-60
2023/03/20 03:46:57;;;;;;;;;;;;;;;19.70;47.39;101086.44;4901330;29;4156;-61
2023/03/20 03:49:25;;;;;;;;;;;;;;;19.71;47.33;101090.81;4933958;28;4168;-60
2023/03/20 03:51:54;;;;;;;;;;;;;;;19.73;47.31;101090.91;4925284;28;5306;-60
2023/03/20 03:54:21;;;;;;;;;;;;;;;19.75;47.24;101085.28;4911772;29;4209;-60
2023/03/20 03:57:36;;;;;;;;;;;;;;;19.76;47.23;101087.50;4922322;28;4280;-60
2023/03/20 04:00:05;;;;;;;;;;;;;;;19.76;47.28;101089.63;4902068;29;5218;-60
2023/03/20 04:02:38;;;;;;;;;;;;;;;19.77;47.28;101093.97;4929980;28;4800;-60
2023/03/20 04:05:04;;;;;;;;;;;;;;;19.77;47.37;101093.97;4915195;28;4132;-60
2023/03/20 04:07:31;;;;;;;;;;;;;;;19.78;47.38;101095.47;4915388;28;5531;-60
2023/03/20 04:09:57;;;;;;;;;;;;;;;19.78;47.27;101095.47;4927714;28;4143;-60
2023/03/20 04:12:23;;;;;;;;;;;;;;;19.77;47.16;101099.72;4944374;28;4326;-61
2023/03/20 04:14:50;;;;;;;;;;;;;;;19.77;47.32;101099.72;4934270;28;4194;-61
2023/03/20 04:17:20;;;;;;;;;;;;;;;19.78;47.44;101101.22;4937356;28;5386;-61
2023/03/20 04:19:46;;;;;;;;;;;;;;;19.78;47.39;101101.97;4922970;28;5276;-61
2023/03/20 04:22:13;;;;;;;;;;;;;;;19.77;47.51;101102.59;4935843;29;5266;-60
2023/03/20 04:24:39;;;;;;;;;;;;;;;19.80;47.46;101109.97;4947310;28;5223;-60
2023/03/20 04:27:05;;;;;;;;;;;;;;;19.82;47.50;101107.19;4945631;28;4105;-60
2023/03/20 04:29:32;;;;;;;;;;;;;;;19.83;47.50;101103.66;4929604;29;4232;-61
2023/03/20 04:32:22;;;;;;;;;;;;;;;19.85;47.29;101111.66;4938993;29;4273;-61
2023/03/20 04:35:00;;;;;;;;;;;;;;;19.85;47.39;101106.66;4939029;28;4221;-61
2023/03/20 04:37:44;;;;;;;;;;;;;;;19.85;47.49;101114.53;4951449;28;4180;-61
2023/03/20 04:40:11;;;;;;;;;;;;;;;19.86;47.63;101113.91;4951718;28;5304;-61
2023/03/20 04:42:40;;;;;;;;;;;;;;;19.85;47.54;101111.66;4940677;28;4806;-60
2023/03/20 04:45:07;;;;;;;;;;;;;;;19.84;47.56;101110.19;4942858;28;4164;-61
2023/03/20 04:47:45;;;;;;;;;;;;;;;19.85;47.52;101111.66;4921445;28;4254;-60
2023/03/20 04:50:12;;;;;;;;;;;;;;;19.84;47.45;101113.06;4933009;29;4128;-60
2023/03/20 04:52:39;;;;;;;;;;;;;;;19.85;47.65;101120.28;4945688;28;5353;-60
2023/03/20 04:55:06;;;;;;;;;;;;;;;19.84;47.63;101113.06;4939576;28;4248;-60
2023/03/20 04:57:33;;;;;;;;;;;;;;;19.83;47.60;101118.03;4920709;28;4190;-60
2023/03/20 04:59:59;;;;;;;;;;;;;;;19.84;47.67;101110.19;4937947;28;4180;-60
2023/03/20 05:02:26;;;;;;;;;;;;;;;19.85;47.63;101117.41;4932596;28;4084;-60
2023/03/20 05:04:52;;;;;;;;;;;;;;;19.83;47.74;101120.91;4920992;28;4224;-60
2023/03/20 05:07:19;;;;;;;;;;;;;;;19.87;47.65;101121.13;4938413;29;4244;-60
2023/03/20 05:09:59;;;;;;;;;;;;;;;19.87;47.71;101114.63;4915327;28;4918;-60
2023/03/20 05:12:26;;;;;;;;;;;;;;;19.89;47.63;101117.63;4933391;28;4167;-60
2023/03/20 05:15:09;;;;;;;;;;;;;;;19.92;47.61;101122.09;4932158;29;5613;-60
2023/03/20 05:17:58;;;;;;;;;;;;;;;19.92;47.60;101116.34;4934317;28;4184;-60
2023/03/20 05:20:41;;;;;;;;;;;;;;;19.92;47.68;101122.09;4936236;28;4205;-60
2023/03/20 05:23:27;;;;;;;;;;;;;;;19.92;47.71;101127.84;4937872;28;5338;-60
2023/03/20 05:26:12;;;;;;;;;;;;;;;19.91;47.73;101114.84;4942063;28;4154;-60
2023/03/20 05:28:57;;;;;;;;;;;;;;;19.90;47.62;101121.97;4944540;28;4208;-60
2023/03/20 05:31:36;;;;;;;;;;;;;;;19.90;47.71;101121.22;4923364;28;4242;-60
2023/03/20 05:34:11;;;;;;;;;;;;;;;19.91;47.74;101126.34;4932480;28;5224;-60
2023/03/20 05:37:01;;;;;;;;;;;;;;;19.90;47.69;101124.09;4933511;29;5278;-60
2023/03/20 05:39:37;;;;;;;;;;;;;;;19.90;47.80;101126.97;4925000;28;4231;-60
2023/03/20 05:42:18;;;;;;;;;;;;;;;19.90;47.73;101124.84;4931074;29;4228;-60
2023/03/20 05:45:07;;;;;;;;;;;;;;;19.91;47.72;101132.09;4942186;28;3979;-60
2023/03/20 05:47:52;;;;;;;;;;;;;;;19.92;47.79;101129.97;4942450;28;5291;-60
2023/03/20 05:50:46;;;;;;;;;;;;;;;19.94;47.69;101130.06;4947367;28;4187;-60
2023/03/20 05:53:18;;;;;;;;;;;;;;;19.95;47.79;101135.19;4921951;29;4905;-60
2023/03/20 05:55:53;;;;;;;;;;;;;;;19.96;47.75;101138.81;4929853;29;4344;-60
2023/03/20 05:58:41;;;;;;;;;;;;;;;19.95;47.70;101140.94;4915011;29;4165;-60
2023/03/20 06:01:36;;;;;;;;;;;;;;;19.96;47.80;101139.53;4913424;29;4346;-60
2023/03/20 06:04:23;;;;;;;;;;;;;;;19.96;47.76;101148.16;4921088;29;4146;-60
2023/03/20 06:07:05;;;;;;;;;;;;;;;19.96;47.94;101156.78;4934748;28;5241;-60
2023/03/20 06:09:31;;;;;;;;;;;;;;;19.96;47.87;101156.06;4932541;29;4194;-60
2023/03/20 06:11:59;;;;;;;;;;;;;;;19.96;47.91;101173.31;4934134;28;5498;-60
2023/03/20 06:14:26;;;;;;;;;;;;;;;19.94;47.88;101176.81;4929260;28;4250;-60
2023/03/20 06:16:56;;;;;;;;;;;;;;;19.95;47.76;101177.53;4928720;29;4261;-60
2023/03/20 06:19:24;;;;;;;;;;;;;;;19.94;47.92;101176.06;4922360;28;4219;-61
2023/03/20 06:21:50;;;;;;;;;;;;;;;19.92;47.95;101191.06;4929250;29;5599;-60
2023/03/20 06:24:19;;;;;;;;;;;;;;;19.93;47.91;101198.31;4919765;29;4020;-60
2023/03/20 06:26:46;;;;;;;;;;;;;;;19.99;48.01;101197.88;4932460;28;4224;-66
2023/03/20 06:29:12;;;;;;;;;;;;;;;19.81;47.92;101204.16;4938393;28;4046;-58
2023/03/20 06:31:39;;;;;;;;;;;;;;;19.45;48.37;101205.75;4917926;28;4290;-65
2023/03/20 06:34:10;;;;;;;;;;;;;;;19.79;49.52;101209.78;4918417;29;4170;-65
2023/03/20 06:36:42;;;;;;;;;;;;;;;19.97;48.78;101220.75;4944775;28;5366;-64
2023/03/20 06:39:16;;;;;;;;;;;;;;;20.08;48.56;101220.66;4921036;29;4097;-64
2023/03/20 06:41:43;;;;;;;;;;;;;;;20.20;48.64;101208.31;4917977;28;3959;-65
2023/03/20 06:44:09;;;;;;;;;;;;;;;20.30;48.76;101212.50;4928933;28;4755;-64
2023/03/20 06:46:54;;;;;;;;;;;;;;;20.63;48.20;101216.31;4938454;28;4735;-64
2023/03/20 06:49:24;;;;;;;;;;;;;;;20.78;47.65;101224.28;4939055;28;4045;-64
2023/03/20 06:51:50;;;;;;;;;;;;;;;20.81;47.43;101220.13;4939146;29;4748;-63
2023/03/20 06:54:22;;;;;;;;;;;;;;;20.84;47.19;101227.47;4923122;28;3988;-63
2023/03/20 06:56:50;;;;;;;;;;;;;;;20.64;47.51;101232.22;4931383;28;4362;-64
2023/03/20 06:59:16;;;;;;;;;;;;;;;20.44;47.63;101226.13;4931152;28;4227;-63
2023/03/20 07:01:43;;;;;;;;;;;;;;;20.34;47.78;101232.09;4920347;28;4265;-64
2023/03/20 07:04:11;;;;;;;;;;;;;;;20.46;48.45;101240.59;4909136;28;4591;-64
2023/03/20 07:06:47;;;;;;;;;;;;;;;20.46;48.48;101229.84;4925771;28;4225;-63
2023/03/20 07:09:22;;;;;;;;;;;;;;;20.49;48.92;101239.31;4916431;29;4568;-63
2023/03/20 07:11:49;;;;;;;;;;;;;;;20.50;49.27;101229.28;4934984;28;5419;-65
2023/03/20 07:14:15;;;;;;;;;;;;;;;20.57;48.86;101227.50;4921957;29;4190;-63
2023/03/20 07:16:47;;;;;;;;;;;;;;;20.81;49.25;101234.50;4930016;29;4183;-62
2023/03/20 07:19:13;;;;;;;;;;;;;;;21.12;48.67;101236.03;4935660;28;4235;-64
2023/03/20 07:21:42;;;;;;;;;;;;;;;21.20;48.16;101236.44;4926496;29;5310;-65
2023/03/20 07:24:11;;;;;;;;;;;;;;;21.12;47.82;101227.41;4915419;29;4227;-63
2023/03/20 07:26:46;;;;;;;;;;;;;;;20.71;48.31;101231.13;4942864;28;4213;-63
2023/03/20 07:29:13;;;;;;;;;;;;;;;20.68;48.87;101230.28;4935162;29;5298;-62
2023/03/20 07:31:40;;;;;;;;;;;;;;;20.68;48.67;101238.91;4932924;28;4273;-61
2023/03/20 07:34:11;;;;;;;;;;;;;;;20.64;48.59;101238.69;4931544;29;5544;-62
2023/03/20 07:36:40;;;;;;;;;;;;;;;20.72;48.48;101244.13;4918663;29;4203;-66
2023/03/20 07:39:09;;;;;;;;;;;;;;;20.64;47.66;101243.72;4931218;29;4271;-68
2023/03/20 07:41:37;;;;;;;;;;;;;;;19.83;47.42;101252.34;4924979;28;5309;-68
2023/03/20 07:44:09;;;;;;;;;;;;;;;19.52;48.06;101247.78;4914956;29;4282;-67
2023/03/20 07:46:46;;;;;;;;;;;;;;;19.31;47.86;101245.13;4926853;28;5371;-70
2023/03/20 07:49:14;;;;;;;;;;;;;;;18.98;47.82;101243.28;4935623;29;5290;-67
2023/03/20 07:51:40;;;;;;;;;;;;;;;18.81;47.84;101248.06;4945490;28;4178;-68
2023/03/20 07:54:07;;;;;;;;;;;;;;;18.66;48.06;101259.31;4928383;29;4222;-67
2023/03/20 07:56:35;;;;;;;;;;;;;;;18.60;48.26;101251.09;4937294;29;4185;-67
2023/03/20 07:59:01;;;;;;;;;;;;;;;18.75;47.91;101258.41;4935893;28;4161;-68
2023/03/20 08:01:28;;;;;;;;;;;;;;;18.68;48.02;101251.56;4937764;28;5224;-69
2023/03/20 08:03:54;;;;;;;;;;;;;;;18.68;48.05;101257.28;4937380;28;5257;-69
2023/03/20 08:06:21;;;;;;;;;;;;;;;18.69;48.00;101261.66;4943012;28;4180;-70
2023/03/20 08:08:50;;;;;;;;;;;;;;;18.69;47.90;101267.41;4939605;28;4280;-69
2023/03/20 08:11:17;;;;;;;;;;;;;;;18.79;47.62;101270.91;4942758;28;4019;-69
2023/03/20 08:13:44;;;;;;;;;;;;;;;18.61;48.01;101266.91;4941456;28;4311;-70
2023/03/20 08:16:10;;;;;;;;;;;;;;;18.65;47.91;101275.75;4945424;28;4232;-70
2023/03/20 08:18:36;;;;;;;;;;;;;;;18.62;47.94;101274.13;4943322;28;4222;-70
2023/03/20 08:21:03;;;;;;;;;;;;;;;18.70;47.83;101274.63;4939902;28;4521;-69
2023/03/20 08:23:29;;;;;;;;;;;;;;;18.78;47.71;101278.03;4942217;28;4213;-69
2023/03/20 08:25:56;;;;;;;;;;;;;;;18.72;47.93;101269.03;4945240;28;4355;-69
2023/03/20 08:28:22;;;;;;;;;;;;;;;18.65;48.24;101270.03;4943075;28;5312;-68
2023/03/20 08:31:09;;;;;;;;;;;;;;;19.08;47.95;101257.47;4934460;28;5292;-67
2023/03/20 08:33:35;;;;;;;;;;;;;;;19.61;46.56;101261.22;4942368;28;4333;-64
2023/03/20 08:36:01;;;;;;;;;;;;;;;19.62;46.41;101254.09;4935848;28;5060;-65
2023/03/20 08:38:28;;;;;;;;;;;;;;;19.57;46.34;101261.00;4939622;28;4142;-65
2023/03/20 08:40:54;;;;;;;;;;;;;;;19.58;46.29;101271.09;4939391;28;5343;-64
2023/03/20 08:43:21;;;;;;;;;;;;;;;19.64;46.21;101259.94;4938188;28;5533;-65
2023/03/20 08:45:47;;;;;;;;;;;;;;;19.72;46.17;101264.66;4933776;28;4299;-66
2023/03/20 08:48:13;;;;;;;;;;;;;;;19.83;45.99;101263.84;4936032;28;4490;-64
2023/03/20 08:50:40;;;;;;;;;;;;;;;19.88;46.04;101277.06;4939777;28;4434;-66
2023/03/20 08:53:06;;;;;;;;;;;;;;;19.90;45.94;101280.06;4943364;28;5069;-66
2023/03/20 08:55:32;;;;;;;;;;;;;;;19.95;45.90;101275.28;4942643;28;5241;-65
2023/03/20 08:57:59;;;;;;;;;;;;;;;19.97;45.94;101281.88;4943833;28;4093;-66
2023/03/20 09:00:26;;;;;;;;;;;;;;;19.97;46.17;101279.00;4944787;28;4256;-66
2023/03/20 09:02:52;;;;;;;;;;;;;;;20.00;46.09;101272.00;4939319;28;4476;-67
2023/03/20 09:05:19;;;;;;;;;;;;;;;20.00;46.14;101283.50;4938280;28;4358;-67
2023/03/20 09:07:45;;;;;;;;;;;;;;;20.02;46.10;101277.84;4942462;28;4139;-66
2023/03/20 09:10:12;;;;;;;;;;;;;;;20.05;46.18;101281.59;4939531;28;4285;-64
2023/03/20 09:12:38;;;;;;;;;;;;;;;20.04;46.43;101277.97;4936627;28;4173;-64
2023/03/20 09:15:05;;;;;;;;;;;;;;;20.06;46.25;101280.94;4948152;28;4166;-62
2023/03/20 09:17:32;;;;;;;;;;;;;;;20.06;46.26;101280.94;4954601;28;5459;-64
2023/03/20 09:19:58;;;;;;;;;;;;;;;20.08;46.16;101272.41;4945465;28;4288;-64
2023/03/20 09:22:25;;;;;;;;;;;;;;;20.08;46.44;101275.28;4960025;28;4178;-64
2023/03/20 09:24:51;;;;;;;;;;;;;;;20.09;46.54;101268.19;4944710;28;4168;-64
2023/03/20 09:27:17;;;;;;;;;;;;;;;20.11;46.23;101269.66;4953792;28;4724;-64
2023/03/20 09:29:44;;;;;;;;;;;;;;;20.09;46.51;101268.19;4950521;28;5188;-66
2023/03/20 09:32:13;;;;;;;;;;;;;;;20.25;46.16;101268.31;4946685;28;5096;-64
2023/03/20 09:34:39;;;;;;;;;;;;;;;20.24;46.55;101263.19;4955709;28;4056;-65
2023/03/20 09:37:06;;;;;;;;;;;;;;;20.19;46.90;101270.09;4953045;28;4352;-66
2023/03/20 09:39:33;;;;;;;;;;;;;;;20.18;46.70;101257.09;4952266;28;4469;-65
2023/03/20 09:42:01;;;;;;;;;;;;;;;20.30;47.20;101257.75;4957806;28;6389;-63
2023/03/20 09:44:46;;;;;;;;;;;;;;;20.41;47.02;101268.41;4946722;28;5340;-63
2023/03/20 09:47:20;;;;;;;;;;;;;;;20.56;46.81;101274.91;4956494;28;4148;-65
2023/03/20 09:49:52;;;;;;;;;;;;;;;20.60;46.85;101273.03;4957401;28;4131;-64
2023/03/20 09:52:20;;;;;;;;;;;;;;;20.61;46.80;101279.50;4944920;28;5137;-66
2023/03/20 09:54:47;;;;;;;;;;;;;;;20.63;46.72;101279.63;4945935;28;4297;-67
2023/03/20 09:57:27;;;;;;;;;;;;;;;20.61;46.85;101291.03;4929027;28;4391;-67
2023/03/20 09:59:55;;;;;;;;;;;;;;;20.68;46.40;101279.22;4919749;28;4154;-65
2023/03/20 10:02:24;;;;;;;;;;;;;;;20.68;46.45;101278.44;4946586;28;4206;-64
2023/03/20 10:04:52;;;;;;;;;;;;;;;20.74;46.40;101269.38;4916794;28;5394;-65
2023/03/20 10:07:18;;;;;;;;;;;;;;;20.80;46.74;101279.09;4943536;28;4195;-65
2023/03/20 10:09:45;;;;;;;;;;;;;;;21.00;46.19;101267.81;4943948;28;4142;-68
2023/03/20 10:12:22;;;;;;;;;;;;;;;20.74;46.14;101278.75;4948059;28;4162;-63
2023/03/20 10:15:12;;;;;;;;;;;;;;;20.56;46.75;101283.53;4941063;28;4914;-68
2023/03/20 10:17:42;;;;;;;;;;;;;;;20.63;46.41;101276.75;4920183;28;5486;-72
2023/03/20 10:20:12;;;;;;;;;;;;;;;20.67;46.47;101282.72;4939138;28;4664;-66
2023/03/20 10:22:45;;;;;;;;;;;;;;;20.67;46.66;101282.72;4936934;28;4066;-67
2023/03/20 10:25:11;;;;;;;;;;;;;;;20.73;47.24;101273.63;4939290;28;4061;-66
2023/03/20 10:27:42;;;;;;;;;;;;;;;20.73;47.16;101285.91;4940375;28;4032;-67
2023/03/20 10:30:11;;;;;;;;;;;;;;;20.83;46.34;101269.16;4921654;28;4177;-71
2023/03/20 10:32:40;;;;;;;;;;;;;;;20.80;46.57;101279.09;4944280;28;4382;-70
2023/03/20 10:35:36;;;;;;;;;;;;;;;20.70;47.02;101264.91;4920157;28;4147;-66
2023/03/20 10:38:17;;;;;;;;;;;;;;;20.44;46.05;101278.63;4918295;28;4359;-65
2023/03/20 10:40:44;;;;;;;;;;;;;;;20.53;46.30;101267.56;4936899;28;4550;-64
2023/03/20 10:43:15;;;;;;;;;;;;;;;20.71;46.29;101260.66;4918466;29;4138;-66
2023/03/20 10:45:43;;;;;;;;;;;;;;;20.87;46.45;101266.50;4934672;28;4034;-66
2023/03/20 10:48:20;;;;;;;;;;;;;;;20.97;46.21;101259.75;4920821;29;4123;-66
2023/03/20 10:50:48;;;;;;;;;;;;;;;20.95;45.95;101254.63;4931974;28;4186;-60
2023/03/20 10:53:23;;;;;;;;;;;;;;;20.70;44.96;101264.16;4939742;28;4209;-66
2023/03/20 10:55:50;;;;;;;;;;;;;;;20.91;44.98;101260.94;4916702;28;5403;-67
2023/03/20 10:58:22;;;;;;;;;;;;;;;21.05;44.57;101263.03;4941825;28;4097;-66
2023/03/20 11:00:49;;;;;;;;;;;;;;;21.07;45.22;101266.78;4917385;28;4333;-68
2023/03/20 11:03:19;;;;;;;;;;;;;;;20.96;45.88;101256.13;4944626;28;5156;-71
2023/03/20 11:05:45;;;;;;;;;;;;;;;21.06;45.85;101259.50;4921745;28;4217;-69
2023/03/20 11:08:35;;;;;;;;;;;;;;;21.03;45.85;101248.53;4933742;28;4208;-69
2023/03/20 11:11:02;;;;;;;;;;;;;;;21.15;45.36;101249.13;4938587;28;4230;-71
2023/03/20 11:13:29;;;;;;;;;;;;;;;21.05;45.70;101251.50;4937759;28;5318;-65
2023/03/20 11:15:56;;;;;;;;;;;;;;;21.01;46.08;101260.69;4940769;28;4309;-69
2023/03/20 11:18:25;;;;;;;;;;;;;;;21.05;45.97;101252.28;4941291;28;4174;-67
2023/03/20 11:20:55;;;;;;;;;;;;;;;21.10;46.25;101250.34;4936555;28;5211;-68
2023/03/20 11:23:23;;;;;;;;;;;;;;;21.02;46.42;101258.56;4946851;28;4229;-69
2023/03/20 11:26:03;;;;;;;;;;;;;;;21.08;46.63;101250.22;4941905;28;4233;-69
2023/03/20 11:28:39;;;;;;;;;;;;;;;21.09;46.88;101245.94;4945094;28;4160;-73
2023/03/20 11:31:07;;;;;;;;;;;;;;;21.10;46.77;101248.19;4930308;29;5526;-72
2023/03/20 11:33:35;;;;;;;;;;;;;;;21.09;46.51;101260.34;4932597;29;4181;-70
2023/03/20 11:36:01;;;;;;;;;;;;;;;21.12;46.65;101256.94;4919585;28;4492;-66
2023/03/20 11:38:28;;;;;;;;;;;;;;;21.15;46.68;101254.91;4918664;29;4222;-67
2023/03/20 11:40:54;;;;;;;;;;;;;;;21.18;46.63;101252.84;4940314;28;4153;-68
2023/03/20 11:43:22;;;;;;;;;;;;;;;21.07;46.67;101248.72;4943101;28;4213;-73
2023/03/20 11:45:49;;;;;;;;;;;;;;;20.81;44.38;101228.75;4938293;28;4265;-73
2023/03/20 11:48:19;;;;;;;;;;;;;;;20.75;44.24;101239.94;4940266;28;4253;-74
2023/03/20 11:50:58;;;;;;;;;;;;;;;20.78;46.01;101227.16;4945023;28;5601;-70
2023/03/20 11:53:31;;;;;;;;;;;;;;;20.92;46.31;101222.13;4928593;29;5129;-70
2023/03/20 11:55:59;;;;;;;;;;;;;;;21.13;45.82;101234.63;4943619;28;4220;-68
2023/03/20 11:58:26;;;;;;;;;;;;;;;21.31;45.82;101220.38;4924295;29;4181;-68
2023/03/20 12:00:53;;;;;;;;;;;;;;;21.38;45.69;101222.16;4943685;28;5275;-69
2023/03/20 12:03:31;;;;;;;;;;;;;;;21.42;45.68;101227.41;4928323;29;5503;-68
2023/03/20 12:05:58;;;;;;;;;;;;;;;21.36;45.78;101224.22;4944101;28;5467;-71
2023/03/20 12:08:25;;;;;;;;;;;;;;;21.21;46.09;101229.28;4938741;28;4201;-70
2023/03/20 12:10:56;;;;;;;;;;;;;;;21.17;45.85;101225.47;4921122;29;5255;-72
2023/03/20 12:13:27;;;;;;;;;;;;;;;21.20;45.97;101216.25;4921209;29;4209;-65
2023/03/20 12:15:54;;;;;;;;;;;;;;;21.27;46.59;101209.41;4924456;28;4129;-65
2023/03/20 12:18:21;;;;;;;;;;;;;;;21.50;45.97;101210.50;4928746;29;4230;-67
2023/03/20 12:21:05;;;;;;;;;;;;;;;21.62;46.00;101202.41;4938495;28;5040;-68
2023/03/20 12:23:36;;;;;;;;;;;;;;;21.71;45.77;101200.66;4939811;28;4176;-67
2023/03/20 12:26:19;;;;;;;;;;;;;;;21.75;45.80;101197.97;4920655;28;4195;-66
2023/03/20 12:28:46;;;;;;;;;;;;;;;21.87;46.04;101209.31;4929071;28;4146;-67
2023/03/20 12:31:16;;;;;;;;;;;;;;;21.79;45.30;101191.66;4937413;28;4174;-66
2023/03/20 12:33:50;;;;;;;;;;;;;;;21.72;45.60;101202.91;4944246;28;5442;-69
2023/03/20 12:36:17;;;;;;;;;;;;;;;21.63;45.58;101195.28;4936832;29;6606;-73
2023/03/20 12:38:44;;;;;;;;;;;;;;;21.18;46.25;101190.25;4939416;28;4187;-71
2023/03/20 12:41:14;;;;;;;;;;;;;;;21.17;45.83;101194.53;4928301;29;4176;-63
2023/03/20 12:43:47;;;;;;;;;;;;;;;21.18;45.93;101195.25;4938856;28;4204;-71
2023/03/20 12:46:22;;;;;;;;;;;;;;;21.13;46.18;101183.53;4940924;28;5292;-70
2023/03/20 12:49:00;;;;;;;;;;;;;;;21.12;46.32;101184.94;4921385;29;4204;-70
2023/03/20 12:51:34;;;;;;;;;;;;;;;21.08;45.76;101184.00;4920973;29;4263;-69
2023/03/20 12:54:08;;;;;;;;;;;;;;;20.97;46.25;101187.78;4940902;28;5240;-69
2023/03/20 12:56:45;;;;;;;;;;;;;;;20.91;46.22;101186.09;4917634;29;4052;-70
2023/03/20 12:59:18;;;;;;;;;;;;;;;20.89;46.30;101185.22;4936243;28;5332;-70
2023/03/20 13:01:47;;;;;;;;;;;;;;;20.88;46.34;101187.38;4931671;28;5267;-71
2023/03/20 13:04:16;;;;;;;;;;;;;;;20.83;46.31;101182.06;4915502;29;4302;-71
2023/03/20 13:06:58;;;;;;;;;;;;;;;20.79;46.46;101185.47;4939842;28;4209;-70
2023/03/20 13:09:32;;;;;;;;;;;;;;;20.81;46.47;101182.69;4940673;28;4193;-70